Quechee, Vermont
Current Conditions -  °F | °C
As of 6:53 PM on Thursday 27 Nov 2014 (Local Time) from KLEB Reporting Station
Overcast Overcast  
Wind Chill: 24°   Ceiling: 2000
Heat Index: 29°   Visibility: 10mi
Dew Point: 23°   Wind: 5mph
Humidity: 78%   Direction: 30°NNE
Pressure: 29.99"   Gusts: NA
Location:  43.65°N, 72.42°W
Report Text: KLEB 272353Z 03004KT 10SM OVC020 M02/M05 A2999 RMK AO2 SLP166 T10171050 11006 21017 53005
Loading
Personal Weather Stations






























Interactive Weather Map New forecast layout! Learn more

10-Day Weather Forecast

Advertisements
Track Severe Weather on mobile